Time;durP1;ratioP1;P1;durP2;ratioP2;P2;SDS_P1;SDS_P2;PMS_P1;PMS_P2;Temp;Humidity;BMP_temperature;BMP_pressure;BME280_temperature;BME280_humidity;BME280_pressure;Samples;Min_cycle;Max_cycle;Signal;HPM_P1;HPM_P2
2022/08/15 00:02:13;;;;;;;10.65;8.38;;;;;;;22.86;65.80;100026.44;1734110;81;21062;-46
2022/08/15 00:04:40;;;;;;;11.68;9.63;;;;;;;22.88;65.59;100036.95;1723139;82;21007;-46
2022/08/15 00:07:07;;;;;;;11.12;8.93;;;;;;;22.88;65.65;100031.59;1747678;81;20999;-46
2022/08/15 00:09:33;;;;;;;13.88;9.45;;;;;;;22.83;65.89;100030.91;1744922;80;22623;-47
2022/08/15 00:12:01;;;;;;;11.43;8.63;;;;;;;22.81;65.89;100026.25;1747300;81;21596;-46
2022/08/15 00:14:31;;;;;;;10.65;9.55;;;;;;;22.78;65.96;100031.54;1748471;81;21090;-46
2022/08/15 00:17:09;;;;;;;11.03;8.65;;;;;;;22.75;66.07;100036.50;1747999;80;21050;-47
2022/08/15 00:19:33;;;;;;;;;;;;;;;22.74;66.00;100030.30;1731412;82;21141;-45
2022/08/15 00:22:04;;;;;;;12.00;10.25;;;;;;;22.74;65.94;100027.61;1739093;80;21806;-46
2022/08/15 00:24:32;;;;;;;13.62;9.90;;;;;;;22.72;65.96;100023.52;1736072;82;21798;-46
2022/08/15 00:27:02;;;;;;;10.58;8.93;;;;;;;22.67;66.14;100024.14;1748607;80;21502;-46
2022/08/15 00:29:31;;;;;;;9.38;8.08;;;;;;;22.63;66.24;100024.27;1718459;82;21099;-46
2022/08/15 00:31:59;;;;;;;10.93;8.63;;;;;;;22.63;66.27;100028.30;1747920;81;21138;-46
2022/08/15 00:34:26;;;;;;;10.05;8.48;;;;;;;22.64;66.29;100032.60;1734866;82;21114;-46
2022/08/15 00:36:53;;;;;;;10.00;8.40;;;;;;;22.69;66.25;100034.13;1744330;80;21103;-46
2022/08/15 00:39:22;;;;;;;13.48;9.20;;;;;;;22.71;66.00;100029.41;1728430;80;21101;-46
2022/08/15 00:41:49;;;;;;;12.47;9.10;;;;;;;22.69;66.10;100023.41;1748659;81;21054;-46
2022/08/15 00:44:21;;;;;;;10.28;9.00;;;;;;;22.67;66.14;100017.44;1740232;82;21082;-46
2022/08/15 00:46:53;;;;;;;12.15;8.95;;;;;;;22.65;66.13;100016.83;1732285;81;21158;-46
2022/08/15 00:49:20;;;;;;;13.40;9.38;;;;;;;22.65;66.06;100019.52;1741351;81;21141;-46
2022/08/15 00:51:56;;;;;;;12.00;8.85;;;;;;;22.68;66.17;100006.18;1743747;80;21066;-46
2022/08/15 00:54:31;;;;;;;13.90;8.90;;;;;;;22.67;66.18;100002.69;1700955;81;21062;-46
2022/08/15 00:57:08;;;;;;;15.55;9.55;;;;;;;22.66;66.18;100002.89;1731590;80;21118;-46
2022/08/15 00:59:38;;;;;;;11.20;9.40;;;;;;;22.62;66.13;100003.84;1740490;82;22066;-47
2022/08/15 01:02:08;;;;;;;11.93;8.43;;;;;;;22.56;66.37;100004.67;1739970;81;21063;-46
2022/08/15 01:04:35;;;;;;;10.60;8.00;;;;;;;22.53;66.40;100001.09;1740964;82;21059;-46
2022/08/15 01:07:03;;;;;;;11.35;8.78;;;;;;;22.57;66.17;100009.02;1740976;80;21055;-46
2022/08/15 01:09:31;;;;;;;12.30;8.78;;;;;;;22.58;66.22;99995.40;1740045;80;21066;-47
2022/08/15 01:12:07;;;;;;;11.68;9.03;;;;;;;22.62;66.17;100002.50;1736109;80;21123;-47
2022/08/15 01:14:35;;;;;;;10.85;8.48;;;;;;;22.61;66.11;99992.80;1719275;81;21085;-47
2022/08/15 01:17:02;;;;;;;10.55;8.90;;;;;;;22.61;66.01;99992.80;1733884;80;21141;-47
2022/08/15 01:19:33;;;;;;;14.07;8.68;;;;;;;22.58;65.98;99995.40;1741058;82;21302;-47
2022/08/15 01:22:32;;;;;;;11.93;8.90;;;;;;;22.59;66.04;99978.78;1719279;82;21526;-46
2022/08/15 01:25:16;;;;;;;12.03;8.80;;;;;;;22.61;66.04;99990.96;1740160;82;21137;-47
2022/08/15 01:27:49;;;;;;;12.18;9.50;;;;;;;22.62;66.07;99992.59;1740878;80;21047;-46
2022/08/15 01:30:18;;;;;;;12.85;9.20;;;;;;;22.59;65.90;99993.53;1730483;81;21114;-46
2022/08/15 01:32:46;;;;;;;15.53;8.75;;;;;;;22.57;66.06;99992.92;1724184;81;21118;-46
2022/08/15 01:35:13;;;;;;;11.45;8.98;;;;;;;22.54;66.13;99994.68;1736102;82;21011;-47
2022/08/15 01:37:40;;;;;;;10.50;8.13;;;;;;;22.54;65.98;99992.00;1714108;80;21124;-47
2022/08/15 01:40:13;;;;;;;12.82;8.43;;;;;;;22.57;65.84;99987.56;1734522;81;21103;-46
2022/08/15 01:42:44;;;;;;;17.77;9.30;;;;;;;22.58;66.04;99990.03;1735230;80;21349;-47
2022/08/15 01:45:17;;;;;;;13.62;8.88;;;;;;;22.58;66.13;99991.91;1672878;84;21132;-45
2022/08/15 01:47:50;;;;;;;11.73;8.40;;;;;;;22.56;66.24;99988.59;1732169;80;21052;-46
2022/08/15 01:50:37;;;;;;;10.95;8.23;;;;;;;22.56;66.27;99988.59;1733786;82;21237;-46
2022/08/15 01:53:18;;;;;;;12.60;8.78;;;;;;;22.59;66.11;99988.17;1711689;83;21090;-46
2022/08/15 01:55:53;;;;;;;13.55;9.05;;;;;;;22.58;65.85;99993.24;1711398;80;21063;-46
2022/08/15 01:58:21;;;;;;;13.62;9.43;;;;;;;22.52;66.16;99990.87;1695470;83;21133;-46
2022/08/15 02:01:03;;;;;;;12.45;8.28;;;;;;;22.53;66.37;99990.38;1706173;82;21063;-46
2022/08/15 02:03:33;;;;;;;10.25;7.50;;;;;;;22.54;66.26;99992.00;1696678;83;21139;-46
2022/08/15 02:06:09;;;;;;;17.20;9.25;;;;;;;22.56;66.27;99985.41;1692220;82;21078;-47
2022/08/15 02:08:37;;;;;;;11.88;9.05;;;;;;;22.58;66.19;99990.56;1668202;86;21055;-48
2022/08/15 02:11:10;;;;;;;12.75;8.65;;;;;;;22.58;66.05;99981.18;1687396;82;21098;-47
2022/08/15 02:13:41;;;;;;;11.50;8.48;;;;;;;22.56;65.76;99981.88;1690973;82;21126;-47
2022/08/15 02:16:07;;;;;;;13.70;8.48;;;;;;;22.50;65.78;99984.09;1664772;84;21155;-47
2022/08/15 02:18:34;;;;;;;10.30;7.95;;;;;;;22.51;65.98;99980.35;1692067;82;21573;-47
2022/08/15 02:21:01;;;;;;;10.78;8.10;;;;;;;22.55;65.97;99980.25;1692112;82;21602;-47
2022/08/15 02:23:29;;;;;;;10.68;8.88;;;;;;;22.58;65.64;99986.02;1692526;84;21129;-47
2022/08/15 02:25:55;;;;;;;10.18;8.20;;;;;;;22.59;65.71;99987.67;1695874;82;21106;-47
2022/08/15 02:28:23;;;;;;;13.05;8.30;;;;;;;22.61;65.53;99986.09;1730324;82;21115;-47
2022/08/15 02:30:50;;;;;;;9.28;7.53;;;;;;;22.57;65.46;99987.56;1708892;82;21111;-46
2022/08/15 02:33:17;;;;;;;9.03;7.05;;;;;;;22.56;65.50;99989.92;1694415;83;21066;-47
2022/08/15 02:35:43;;;;;;;10.65;8.10;;;;;;;22.60;65.43;99994.66;1704490;82;21094;-47
2022/08/15 02:38:10;;;;;;;14.60;7.97;;;;;;;22.63;65.51;99997.45;1682292;83;21059;-47
2022/08/15 02:40:36;;;;;;;13.28;8.80;;;;;;;22.65;65.89;99995.38;1696100;83;21105;-47
2022/08/15 02:43:08;;;;;;;10.98;8.48;;;;;;;22.62;65.63;99991.25;1683612;82;21082;-47
2022/08/15 02:45:38;;;;;;;10.60;7.83;;;;;;;22.61;65.47;99986.09;1696161;84;21449;-48
2022/08/15 02:48:07;;;;;;;11.68;7.60;;;;;;;22.62;65.35;99986.41;1695551;82;21115;-47
2022/08/15 02:50:36;;;;;;;9.58;8.00;;;;;;;22.66;65.14;99988.96;1695057;84;21031;-47
2022/08/15 02:53:14;;;;;;;11.85;8.23;;;;;;;22.67;65.42;99998.66;1677906;82;21133;-47
2022/08/15 02:55:42;;;;;;;10.15;8.45;;;;;;;22.66;65.21;99984.13;1699896;82;21127;-47
2022/08/15 02:58:11;;;;;;;12.37;8.40;;;;;;;22.62;65.47;99985.07;1747961;81;21035;-48
2022/08/15 03:00:39;;;;;;;10.88;7.87;;;;;;;22.61;65.49;99986.09;1720247;82;21079;-47
2022/08/15 03:03:11;;;;;;;10.25;8.03;;;;;;;22.63;65.65;99984.05;1745284;80;21102;-47
2022/08/15 03:05:40;;;;;;;10.70;8.10;;;;;;;22.68;65.37;99985.58;1749120;82;21806;-47
2022/08/15 03:08:08;;;;;;;9.43;8.25;;;;;;;22.68;65.28;99984.23;1726813;80;21050;-51
2022/08/15 03:10:35;;;;;;;10.58;8.58;;;;;;;22.68;65.38;99988.75;1743123;81;21055;-48
2022/08/15 03:13:09;;;;;;;8.55;7.33;;;;;;;22.68;65.56;99991.44;1736809;80;21094;-47
2022/08/15 03:15:52;;;;;;;10.30;8.03;;;;;;;22.66;65.56;99986.28;1749558;82;21069;-46
2022/08/15 03:18:21;;;;;;;10.48;7.95;;;;;;;22.66;65.38;99989.48;1741842;80;21790;-46
2022/08/15 03:20:51;;;;;;;10.58;8.20;;;;;;;22.68;65.51;99992.28;1748846;80;21015;-46
2022/08/15 03:23:22;;;;;;;12.13;8.25;;;;;;;22.69;65.45;99991.22;1748797;81;21616;-47
2022/08/15 03:25:51;;;;;;;12.20;8.18;;;;;;;22.69;65.61;99987.73;1737423;80;21066;-46
2022/08/15 03:28:23;;;;;;;8.83;7.20;;;;;;;22.69;65.51;99987.20;1747640;81;21121;-45
2022/08/15 03:30:50;;;;;;;11.63;8.68;;;;;;;22.66;65.50;99988.96;1747738;82;21737;-48
2022/08/15 03:33:17;;;;;;;10.65;7.17;;;;;;;22.65;65.59;99987.33;1742102;80;21571;-45
2022/08/15 03:35:48;;;;;;;13.40;8.23;;;;;;;22.68;65.61;99993.62;1726446;80;21074;-46
2022/08/15 03:38:16;;;;;;;10.38;8.45;;;;;;;22.70;65.60;99989.38;1748183;80;21038;-45
2022/08/15 03:40:45;;;;;;;10.15;8.23;;;;;;;22.68;65.50;99984.23;1747891;80;21351;-45
2022/08/15 03:43:19;;;;;;;9.68;7.90;;;;;;;22.66;65.63;99981.44;1714617;82;21104;-46
2022/08/15 03:45:51;;;;;;;9.90;7.90;;;;;;;22.62;65.76;99983.20;1740085;81;21359;-46
2022/08/15 03:48:23;;;;;;;10.50;8.35;;;;;;;22.58;66.07;99988.70;1748917;80;21121;-46
2022/08/15 03:50:52;;;;;;;10.03;7.70;;;;;;;22.57;66.14;99988.91;1746178;80;21106;-46
2022/08/15 03:53:19;;;;;;;10.72;8.75;;;;;;;22.58;65.97;99988.70;1745921;80;21586;-45
2022/08/15 03:55:46;;;;;;;15.08;8.40;;;;;;;22.59;65.90;99981.47;1733053;80;21661;-45
2022/08/15 03:58:14;;;;;;;9.85;8.08;;;;;;;22.56;66.09;99977.86;1734453;81;21070;-46
2022/08/15 04:00:47;;;;;;;11.75;8.48;;;;;;;22.54;66.30;99978.59;1772123;80;21470;-46
2022/08/15 04:03:18;;;;;;;9.60;7.95;;;;;;;22.51;66.54;99977.67;1742634;81;21075;-45
2022/08/15 04:05:52;;;;;;;10.03;7.75;;;;;;;22.53;66.45;99972.95;1747844;81;21546;-45
2022/08/15 04:08:22;;;;;;;10.13;8.45;;;;;;;22.57;66.51;99972.81;1742341;80;23132;-45
2022/08/15 04:10:50;;;;;;;9.60;8.25;;;;;;;22.59;66.42;99974.27;1736742;81;21585;-45
2022/08/15 04:13:23;;;;;;;9.80;8.50;;;;;;;22.61;66.43;99972.69;1729685;82;21144;-45
2022/08/15 04:15:49;;;;;;;9.95;7.65;;;;;;;22.60;66.45;99971.05;1734345;80;21109;-45
2022/08/15 04:18:15;;;;;;;9.38;7.40;;;;;;;22.61;66.53;99968.66;1741896;81;21090;-45
2022/08/15 04:20:42;;;;;;;10.90;8.05;;;;;;;22.67;66.46;99971.03;1736325;82;21090;-45
2022/08/15 04:23:10;;;;;;;12.75;8.78;;;;;;;22.72;66.43;99963.98;1734774;80;21046;-47
2022/08/15 04:25:39;;;;;;;13.05;8.75;;;;;;;22.73;66.37;99966.14;1739464;80;20996;-45
2022/08/15 04:28:07;;;;;;;11.05;8.58;;;;;;;22.73;66.30;99963.45;1739029;81;21082;-47
2022/08/15 04:30:37;;;;;;;11.48;8.63;;;;;;;22.72;65.94;99972.55;1719210;81;21138;-46
2022/08/15 04:33:27;;;;;;;14.83;8.85;;;;;;;22.74;66.12;99969.14;1734910;80;21095;-46
2022/08/15 04:36:01;;;;;;;9.60;7.83;;;;;;;22.77;65.96;99973.55;1740121;82;21023;-46
2022/08/15 04:38:28;;;;;;;11.00;9.08;;;;;;;22.82;65.92;99975.61;1739449;81;21659;-45
2022/08/15 04:40:55;;;;;;;12.80;8.90;;;;;;;22.81;65.98;99972.11;1745537;81;21039;-45
2022/08/15 04:43:22;;;;;;;11.35;8.55;;;;;;;22.81;65.97;99965.41;1734500;81;21561;-46
2022/08/15 04:45:50;;;;;;;9.58;8.40;;;;;;;22.83;66.04;99961.17;1737661;81;21194;-46
2022/08/15 04:48:17;;;;;;;9.93;8.28;;;;;;;22.87;65.67;99961.03;1736218;81;21083;-46
2022/08/15 04:50:45;;;;;;;11.20;8.15;;;;;;;22.94;65.69;99961.81;1745475;80;21093;-47
2022/08/15 04:53:13;;;;;;;9.88;8.63;;;;;;;23.00;65.61;99961.49;1709054;82;21557;-46
2022/08/15 04:55:43;;;;;;;12.40;8.90;;;;;;;23.03;65.66;99957.55;1739040;80;21505;-45
2022/08/15 04:58:11;;;;;;;11.78;9.23;;;;;;;23.03;65.13;99954.86;1721447;80;21152;-46
2022/08/15 05:00:40;;;;;;;13.18;9.10;;;;;;;23.04;65.18;99953.83;1726591;82;21571;-48
2022/08/15 05:03:24;;;;;;;12.47;8.55;;;;;;;23.11;65.19;99951.95;1712462;81;21080;-45
2022/08/15 05:05:57;;;;;;;13.20;8.85;;;;;;;23.14;65.07;99960.92;1719003;82;21038;-46
2022/08/15 05:08:27;;;;;;;14.05;9.18;;;;;;;23.13;65.13;99956.08;1726870;80;21082;-46
2022/08/15 05:11:01;;;;;;;9.50;8.50;;;;;;;23.16;65.12;99958.31;1735830;81;21267;-46
2022/08/15 05:13:31;;;;;;;12.13;9.03;;;;;;;23.18;65.14;99954.91;1720941;80;21652;-46
2022/08/15 05:15:59;;;;;;;12.70;8.15;;;;;;;23.23;65.07;99952.09;1719638;82;21495;-46
2022/08/15 05:18:28;;;;;;;9.68;8.25;;;;;;;23.29;64.86;99941.31;1738653;80;21032;-46
2022/08/15 05:20:56;;;;;;;10.45;9.05;;;;;;;23.35;64.76;99948.50;1729107;81;21022;-45
2022/08/15 05:23:24;;;;;;;15.95;9.25;;;;;;;23.39;64.68;99943.52;1721951;81;21111;-46
2022/08/15 05:25:55;;;;;;;11.57;9.30;;;;;;;23.40;64.72;99945.14;1733660;80;21138;-46
2022/08/15 05:28:22;;;;;;;10.18;8.75;;;;;;;23.41;64.47;99946.80;1725827;81;21039;-46
2022/08/15 05:30:51;;;;;;;11.38;8.78;;;;;;;23.43;64.54;99940.69;1713913;82;21082;-45
2022/08/15 05:33:21;;;;;;;11.70;8.88;;;;;;;23.50;64.23;99940.63;1730490;80;21127;-45
2022/08/15 05:35:52;;;;;;;10.80;8.88;;;;;;;23.54;64.12;99941.86;1725867;80;21164;-48
2022/08/15 05:38:42;;;;;;;11.50;9.63;;;;;;;23.53;64.24;99939.67;1733061;80;21181;-46
2022/08/15 05:41:20;;;;;;;10.35;9.13;;;;;;;23.53;64.24;99938.86;1724879;80;21088;-46
2022/08/15 05:44:30;;;;;;;10.40;9.20;;;;;;;23.51;64.33;99938.27;1722963;80;21111;-45
2022/08/15 05:47:09;;;;;;;11.75;9.60;;;;;;;23.52;64.10;99933.20;1727174;82;21066;-45
2022/08/15 05:49:50;;;;;;;11.88;9.55;;;;;;;23.56;64.02;99932.52;1728555;81;21091;-46
2022/08/15 05:52:45;;;;;;;17.62;10.15;;;;;;;23.54;63.79;99923.88;1726556;80;21053;-46
2022/08/15 05:55:24;;;;;;;;;;;;;;;23.53;63.57;99924.90;1721792;82;21055;-48
2022/08/15 05:58:31;;;;;;;10.43;8.70;;;;;;;23.56;63.67;99923.13;1690346;80;20489;-45
2022/08/15 06:01:08;;;;;;;12.28;9.30;;;;;;;23.59;63.79;99911.64;1726516;82;22525;-46
2022/08/15 06:03:37;;;;;;;12.05;8.90;;;;;;;23.68;63.89;99910.33;1733268;80;21148;-47
2022/08/15 06:06:09;;;;;;;12.20;8.90;;;;;;;23.71;63.61;99914.73;1718681;82;21004;-46
2022/08/15 06:08:37;;;;;;;13.43;10.08;;;;;;;23.73;63.35;99915.86;1718850;81;21046;-46
2022/08/15 06:11:12;;;;;;;12.85;10.08;;;;;;;23.72;63.22;99910.17;1718761;82;21190;-45
2022/08/15 06:13:55;;;;;;;11.05;8.68;;;;;;;23.71;63.24;99924.14;1717196;80;21751;-46
2022/08/15 06:16:39;;;;;;;12.00;9.43;;;;;;;23.75;63.27;99932.57;1735512;80;21122;-46
2022/08/15 06:19:14;;;;;;;11.78;9.15;;;;;;;23.85;63.11;99938.82;1733737;82;21086;-46
2022/08/15 06:21:51;;;;;;;11.70;9.25;;;;;;;23.90;63.18;99944.35;1727563;81;21107;-46
2022/08/15 06:24:38;;;;;;;11.22;9.10;;;;;;;23.91;62.92;99934.73;1728466;82;21086;-45
2022/08/15 06:27:31;;;;;;;12.78;9.88;;;;;;;23.92;62.43;99924.80;1723973;81;21067;-45
2022/08/15 06:30:15;;;;;;;10.13;8.73;;;;;;;23.88;62.48;99921.73;1704539;82;21145;-46
2022/08/15 06:32:57;;;;;;;15.20;8.67;;;;;;;23.89;62.43;99931.45;1734159;80;20991;-45
2022/08/15 06:35:36;;;;;;;13.22;8.95;;;;;;;23.95;62.32;99932.95;1716689;82;21068;-46
2022/08/15 06:38:48;;;;;;;10.50;8.33;;;;;;;24.00;61.75;99933.10;1726884;81;21145;-46
2022/08/15 06:41:38;;;;;;;12.00;8.13;;;;;;;24.01;61.99;99926.70;1716540;80;21139;-45
2022/08/15 06:44:07;;;;;;;15.10;9.00;;;;;;;24.00;61.55;99928.54;1724160;80;21166;-45
2022/08/15 06:46:38;;;;;;;10.98;8.60;;;;;;;23.98;61.77;99925.79;1719650;82;21092;-45
2022/08/15 06:49:09;;;;;;;13.13;8.78;;;;;;;24.00;61.82;99930.41;1723569;80;21118;-47
2022/08/15 06:51:38;;;;;;;13.45;9.03;;;;;;;24.05;61.76;99933.25;1728441;81;21184;-48
2022/08/15 06:54:06;;;;;;;12.37;7.95;;;;;;;24.05;61.31;99936.75;1729858;82;21509;-46
2022/08/15 06:57:08;;;;;;;9.60;8.55;;;;;;;24.05;61.44;99941.31;1723648;81;21080;-46
2022/08/15 07:00:02;;;;;;;11.15;9.23;;;;;;;24.05;61.29;99945.34;1720320;81;21094;-45
2022/08/15 07:02:46;;;;;;;10.13;9.05;;;;;;;24.04;61.40;99941.00;1716581;80;28249;-46
2022/08/15 07:05:50;;;;;;;13.10;8.35;;;;;;;24.02;61.35;99944.45;1719862;81;21040;-46
2022/08/15 07:08:40;;;;;;;10.65;8.58;;;;;;;24.05;61.56;99943.47;1724310;82;21114;-46
2022/08/15 07:11:28;;;;;;;9.90;7.78;;;;;;;24.13;61.53;99942.38;1727849;81;21135;-46
2022/08/15 07:14:22;;;;;;;16.23;8.08;;;;;;;24.21;61.31;99947.96;1725221;82;21100;-46
2022/08/15 07:17:15;;;;;;;11.95;8.95;;;;;;;24.28;61.07;99952.77;1725600;82;21590;-49
2022/08/15 07:19:43;;;;;;;10.65;8.65;;;;;;;24.34;61.16;99964.48;1731992;80;21070;-47
2022/08/15 07:22:12;;;;;;;13.35;8.88;;;;;;;24.40;60.76;99966.28;1727441;82;21063;-47
2022/08/15 07:24:51;;;;;;;10.55;7.67;;;;;;;24.47;60.82;99957.61;1723175;80;21132;-47
2022/08/15 07:27:20;;;;;;;11.70;7.78;;;;;;;24.54;60.80;99964.25;1713052;81;21550;-47
2022/08/15 07:30:04;;;;;;;11.33;8.65;;;;;;;24.68;60.50;99968.47;1723825;82;21065;-47
2022/08/15 07:32:45;;;;;;;10.25;8.18;;;;;;;24.81;60.23;99964.27;1698825;80;21023;-46
2022/08/15 07:35:17;;;;;;;9.08;7.83;;;;;;;24.91;60.29;99965.05;1711539;82;21005;-45
2022/08/15 07:37:55;;;;;;;10.43;8.25;;;;;;;24.99;59.34;99956.66;1730442;82;21111;-46
2022/08/15 07:40:38;;;;;;;9.78;7.87;;;;;;;25.08;59.05;99961.73;1710954;81;21067;-45
2022/08/15 07:43:28;;;;;;;9.73;7.70;;;;;;;25.13;58.53;99960.52;1729448;82;21118;-46
2022/08/15 07:46:20;;;;;;;15.13;7.70;;;;;;;25.18;58.21;99955.27;1721811;80;21052;-46
2022/08/15 07:49:00;;;;;;;15.58;8.10;;;;;;;25.20;58.29;99958.03;1729760;80;21070;-45
2022/08/15 07:51:31;;;;;;;9.63;7.40;;;;;;;25.21;58.09;99962.88;1663182;84;21160;-45
2022/08/15 07:54:03;;;;;;;10.23;7.65;;;;;;;25.25;58.05;99961.39;1702844;82;21046;-45
2022/08/15 07:56:36;;;;;;;10.38;7.25;;;;;;;25.31;57.71;99962.36;1723932;81;21601;-45
2022/08/15 07:59:22;;;;;;;12.53;7.65;;;;;;;25.42;57.25;99962.92;1729607;80;21648;-46
2022/08/15 08:02:03;;;;;;;10.13;7.35;;;;;;;25.50;57.35;99965.79;1738112;82;21548;-45
2022/08/15 08:04:30;;;;;;;11.70;7.83;;;;;;;25.59;57.16;99973.84;1738465;80;21921;-46
2022/08/15 08:07:22;;;;;;;12.40;8.10;;;;;;;25.66;56.98;99967.81;1735155;82;21116;-46
2022/08/15 08:09:54;;;;;;;9.90;7.28;;;;;;;25.72;56.56;99971.44;1733102;81;20990;-46
2022/08/15 08:13:50;;;;;;;11.78;8.23;;;;;;;25.87;56.22;99977.72;1795035;79;22777;-45
2022/08/15 08:16:35;;;;;;;11.22;7.87;;;;;;;25.95;55.55;99978.75;1737787;82;21019;-46
2022/08/15 08:19:20;;;;;;;11.83;8.03;;;;;;;26.00;55.51;99969.97;1712149;81;21289;-47
2022/08/15 08:22:03;;;;;;;;;;;;;;;26.05;55.13;99957.95;1717863;83;21066;-47
2022/08/15 08:24:58;;;;;;;10.40;7.67;;;;;;;26.05;55.45;99954.72;1689040;83;20184;-47
2022/08/15 08:27:52;;;;;;;8.80;7.28;;;;;;;26.13;55.64;99958.41;1711107;83;21078;-46
2022/08/15 08:30:23;;;;;;;10.30;7.00;;;;;;;26.25;54.80;99955.70;1704582;82;21043;-47
2022/08/15 08:33:24;;;;;;;9.68;7.20;;;;;;;26.39;55.26;99964.88;1707394;83;21140;-47
2022/08/15 08:36:02;;;;;;;11.25;7.80;;;;;;;26.49;54.94;99974.53;1700863;82;21118;-47
2022/08/15 08:38:43;;;;;;;14.65;7.35;;;;;;;26.57;53.89;99958.52;1706832;82;21075;-47
2022/08/15 08:41:36;;;;;;;8.83;7.15;;;;;;;26.59;53.21;99961.25;1690546;83;21637;-47
2022/08/15 08:44:26;;;;;;;22.32;7.62;;;;;;;26.61;53.08;99969.11;1698398;83;21031;-47
2022/08/15 08:47:13;;;;;;;9.95;7.25;;;;;;;26.61;52.86;99965.06;1638781;87;21177;-47
2022/08/15 08:50:03;;;;;;;8.58;7.08;;;;;;;26.62;53.26;99959.97;1698599;83;21057;-47
2022/08/15 08:53:06;;;;;;;8.25;6.97;;;;;;;26.61;53.17;99965.06;1702114;82;21137;-47
2022/08/15 08:55:54;;;;;;;9.93;7.20;;;;;;;26.59;53.47;99955.86;1692873;82;21058;-48
2022/08/15 08:58:37;;;;;;;8.28;6.53;;;;;;;26.60;53.04;99975.05;1688948;83;21150;-47
2022/08/15 09:01:06;;;;;;;9.20;6.80;;;;;;;26.65;52.29;99979.77;1688648;83;21162;-47
2022/08/15 09:03:39;;;;;;;8.73;6.62;;;;;;;26.68;51.62;99987.39;1694020;82;21180;-47
2022/08/15 09:06:08;;;;;;;10.93;6.00;;;;;;;26.75;51.64;99984.52;1707701;82;21526;-47
2022/08/15 09:08:46;;;;;;;15.20;6.55;;;;;;;26.80;51.27;99980.60;1694697;83;21074;-47
2022/08/15 09:11:29;;;;;;;8.75;6.72;;;;;;;26.85;51.51;99982.86;1701586;82;21070;-47
2022/08/15 09:13:59;;;;;;;12.73;6.53;;;;;;;26.93;51.27;99980.29;1701666;82;21154;-48
2022/08/15 09:16:30;;;;;;;7.65;6.15;;;;;;;27.01;50.96;99981.80;1665744;83;21093;-47
2022/08/15 09:19:23;;;;;;;11.15;6.37;;;;;;;27.05;50.48;99968.13;1746514;81;21036;-47
2022/08/15 09:21:50;;;;;;;10.53;6.17;;;;;;;27.11;49.67;99960.92;1750449;80;21521;-48
2022/08/15 09:24:19;;;;;;;11.60;6.95;;;;;;;27.14;49.31;99963.95;1737139;81;21121;-47
2022/08/15 09:27:00;;;;;;;7.83;5.92;;;;;;;27.17;49.33;99970.77;1755177;81;21212;-47
2022/08/15 09:29:37;;;;;;;7.42;5.95;;;;;;;27.16;49.89;99968.58;1753719;80;21008;-48
2022/08/15 09:32:31;;;;;;;9.30;6.28;;;;;;;27.17;49.92;99961.31;1754058;81;21056;-48
2022/08/15 09:35:38;;;;;;;12.98;6.33;;;;;;;27.15;49.16;99953.95;1703609;82;21103;-47
2022/08/15 09:38:16;;;;;;;11.03;6.10;;;;;;;27.07;49.60;99956.54;1757553;79;21007;-47
2022/08/15 09:41:04;;;;;;;11.57;6.92;;;;;;;27.01;49.25;99942.65;1751286;79;21177;-47
2022/08/15 09:44:02;;;;;;;10.58;6.25;;;;;;;26.91;49.03;99935.17;1759324;81;21052;-47
2022/08/15 09:47:08;;;;;;;8.88;6.12;;;;;;;26.80;49.21;99936.07;1759227;81;21076;-47
2022/08/15 09:50:20;;;;;;;11.83;5.67;;;;;;;26.71;49.49;99925.36;1754951;80;21198;-47
2022/08/15 09:53:29;;;;;;;7.65;6.05;;;;;;;26.62;49.76;99934.33;1756852;79;21046;-46
2022/08/15 09:56:03;;;;;;;11.53;6.50;;;;;;;26.54;50.58;99936.87;1760577;80;22193;-47
2022/08/15 09:58:33;;;;;;;15.05;6.40;;;;;;;26.51;51.11;99914.41;1750304;81;21459;-47
2022/08/15 10:01:14;;;;;;;12.13;6.45;;;;;;;26.49;51.73;99908.44;1749823;81;21043;-47
2022/08/15 10:04:00;;;;;;;11.50;6.10;;;;;;;26.40;51.53;99889.13;1749097;81;21098;-47
2022/08/15 10:06:31;;;;;;;7.65;5.75;;;;;;;26.29;51.50;99895.36;1745363;81;21114;-47
2022/08/15 10:09:09;;;;;;;9.68;6.75;;;;;;;26.21;52.12;99915.95;1748305;79;21079;-47
2022/08/15 10:11:47;;;;;;;12.13;6.80;;;;;;;26.19;52.67;99928.32;1742627;81;21534;-47
2022/08/15 10:14:25;;;;;;;8.28;6.03;;;;;;;26.20;53.58;99938.60;1748277;80;21340;-47
2022/08/15 10:17:01;;;;;;;11.65;5.87;;;;;;;26.26;54.35;99943.02;1745875;81;21055;-47
2022/08/15 10:19:37;;;;;;;10.82;6.62;;;;;;;26.31;55.03;99930.48;1752919;80;21044;-46
2022/08/15 10:22:27;;;;;;;9.23;6.03;;;;;;;26.36;55.33;99924.39;1749216;81;21144;-48
2022/08/15 10:25:29;;;;;;;11.43;5.95;;;;;;;26.41;56.01;99926.34;1750685;80;21012;-48
2022/08/15 10:28:14;;;;;;;10.48;6.95;;;;;;;26.49;55.57;99924.13;1747984;81;21067;-48
2022/08/15 10:30:48;;;;;;;13.53;6.78;;;;;;;26.57;56.15;99904.02;1753854;81;21524;-47
2022/08/15 10:33:34;;;;;;;8.88;6.20;;;;;;;26.48;54.87;99877.95;1727567;81;21047;-47
2022/08/15 10:36:16;;;;;;;11.73;6.37;;;;;;;26.33;54.21;99889.80;1709702;81;21374;-48
2022/08/15 10:38:51;;;;;;;8.63;6.12;;;;;;;26.24;53.63;99881.78;1754712;80;21508;-48
2022/08/15 10:41:49;;;;;;;8.18;5.85;;;;;;;26.24;53.56;99879.08;1743835;80;21589;-47
2022/08/15 10:44:24;;;;;;;10.35;6.37;;;;;;;26.25;54.46;99918.48;1749533;80;21668;-46
2022/08/15 10:47:01;;;;;;;11.60;5.80;;;;;;;26.32;53.98;99898.94;1746804;80;21344;-46
2022/08/15 10:49:42;;;;;;;9.05;6.15;;;;;;;26.29;53.28;99872.44;1751745;80;21086;-47
2022/08/15 10:52:27;;;;;;;8.80;5.97;;;;;;;26.25;52.47;99857.81;1752756;81;21056;-47
2022/08/15 10:55:08;;;;;;;10.05;6.00;;;;;;;26.21;52.81;99871.46;1746740;81;22452;-48
2022/08/15 10:57:50;;;;;;;9.25;5.70;;;;;;;26.20;52.71;99880.09;1747665;80;21048;-48
2022/08/15 11:00:48;;;;;;;12.90;6.53;;;;;;;26.24;52.69;99884.47;1748732;81;21145;-47
2022/08/15 11:03:26;;;;;;;8.95;6.60;;;;;;;26.29;52.70;99888.63;1736514;81;21835;-48
2022/08/15 11:06:00;;;;;;;11.30;5.75;;;;;;;26.30;53.03;99907.80;1743736;80;21106;-48
2022/08/15 11:08:27;;;;;;;10.45;6.17;;;;;;;26.32;52.92;99917.81;1731112;81;21330;-47
2022/08/15 11:11:00;;;;;;;9.38;6.05;;;;;;;26.37;53.31;99923.85;1740758;81;21067;-48
2022/08/15 11:13:28;;;;;;;10.85;6.35;;;;;;;26.36;53.37;99922.20;1744628;81;21064;-47
2022/08/15 11:15:57;;;;;;;9.98;5.78;;;;;;;26.33;54.35;99900.05;1750641;81;22043;-48
2022/08/15 11:18:38;;;;;;;13.20;6.83;;;;;;;26.26;55.15;99907.97;1745225;80;21099;-47
2022/08/15 11:21:28;;;;;;;9.98;6.05;;;;;;;26.21;56.36;99875.00;1730067;80;21055;-47
2022/08/15 11:23:58;;;;;;;11.65;5.53;;;;;;;26.16;55.86;99869.50;1733979;81;21027;-46
2022/08/15 11:26:28;;;;;;;10.25;6.03;;;;;;;26.06;56.15;99881.42;1744594;80;21018;-46
2022/08/15 11:29:07;;;;;;;17.20;6.30;;;;;;;26.00;57.23;99888.56;1755313;80;21036;-46
2022/08/15 11:31:48;;;;;;;12.63;6.42;;;;;;;25.97;57.98;99892.27;1731043;81;21012;-48
2022/08/15 11:34:34;;;;;;;10.35;6.47;;;;;;;25.96;58.79;99908.98;1741490;80;21049;-46
2022/08/15 11:37:26;;;;;;;9.75;6.70;;;;;;;25.96;58.83;99906.28;1749466;80;21111;-46
2022/08/15 11:40:06;;;;;;;11.55;6.65;;;;;;;25.93;59.68;99917.50;1751500;80;21092;-46
2022/08/15 11:42:40;;;;;;;15.10;8.73;;;;;;;25.98;60.73;99924.37;1737626;80;21190;-47
2022/08/15 11:45:20;;;;;;;16.87;8.23;;;;;;;26.06;60.87;99930.77;1751727;81;21047;-47
2022/08/15 11:47:53;;;;;;;11.60;7.28;;;;;;;26.13;61.19;99934.14;1744299;81;21095;-47
2022/08/15 11:50:38;;;;;;;10.05;6.70;;;;;;;26.16;61.94;99938.77;1731201;80;21058;-47
2022/08/15 11:53:08;;;;;;;17.15;7.08;;;;;;;26.12;62.23;99935.19;1752080;80;21055;-47
2022/08/15 11:55:44;;;;;;;11.60;7.75;;;;;;;26.08;62.38;99936.73;1742612;80;21137;-47
2022/08/15 11:58:17;;;;;;;11.38;6.40;;;;;;;26.06;61.71;99939.39;1746142;81;21095;-46
2022/08/15 12:00:53;;;;;;;11.63;6.78;;;;;;;26.04;61.04;99928.00;1729845;81;21640;-46
2022/08/15 12:03:31;;;;;;;11.28;6.28;;;;;;;26.02;58.98;99912.05;1737433;80;21063;-46
2022/08/15 12:06:16;;;;;;;10.28;6.03;;;;;;;25.97;59.10;99916.53;1741182;80;21055;-46
2022/08/15 12:08:44;;;;;;;9.65;6.22;;;;;;;25.90;59.08;99908.53;1740428;80;21149;-47
2022/08/15 12:11:23;;;;;;;9.35;6.90;;;;;;;25.87;58.97;99915.23;1738097;80;21028;-47